sensor_id;sensor_type;location;lat;lon;timestamp;P1;durP1;ratioP1;P2;durP2;ratioP2
12896;SDS011;6516;35.028;32.372;2022-12-19T00:01:24;53.83;;;28.20;;
12896;SDS011;6516;35.028;32.372;2022-12-19T00:03:55;53.53;;;27.30;;
12896;SDS011;6516;35.028;32.372;2022-12-19T00:06:25;49.90;;;26.10;;
12896;SDS011;6516;35.028;32.372;2022-12-19T00:08:55;53.67;;;28.25;;
12896;SDS011;6516;35.028;32.372;2022-12-19T00:11:24;50.15;;;26.83;;
12896;SDS011;6516;35.028;32.372;2022-12-19T00:13:55;48.57;;;25.50;;
12896;SDS011;6516;35.028;32.372;2022-12-19T00:16:24;53.47;;;27.38;;
12896;SDS011;6516;35.028;32.372;2022-12-19T00:18:54;50.90;;;27.02;;
12896;SDS011;6516;35.028;32.372;2022-12-19T00:21:25;53.78;;;27.73;;
12896;SDS011;6516;35.028;32.372;2022-12-19T00:23:54;46.88;;;23.75;;
12896;SDS011;6516;35.028;32.372;2022-12-19T00:26:23;44.37;;;23.03;;
12896;SDS011;6516;35.028;32.372;2022-12-19T00:28:55;54.03;;;27.35;;
12896;SDS011;6516;35.028;32.372;2022-12-19T00:31:25;53.88;;;28.08;;
12896;SDS011;6516;35.028;32.372;2022-12-19T00:33:55;56.42;;;29.15;;
12896;SDS011;6516;35.028;32.372;2022-12-19T00:36:23;53.50;;;27.85;;
12896;SDS011;6516;35.028;32.372;2022-12-19T00:38:54;52.33;;;26.20;;
12896;SDS011;6516;35.028;32.372;2022-12-19T00:41:24;61.13;;;30.27;;
12896;SDS011;6516;35.028;32.372;2022-12-19T00:43:57;58.17;;;29.58;;
12896;SDS011;6516;35.028;32.372;2022-12-19T00:46:27;60.05;;;28.48;;
12896;SDS011;6516;35.028;32.372;2022-12-19T00:48:57;52.05;;;27.38;;
12896;SDS011;6516;35.028;32.372;2022-12-19T00:51:26;51.00;;;26.50;;
12896;SDS011;6516;35.028;32.372;2022-12-19T00:53:56;53.33;;;26.88;;
12896;SDS011;6516;35.028;32.372;2022-12-19T00:56:25;50.65;;;26.80;;
12896;SDS011;6516;35.028;32.372;2022-12-19T00:58:55;59.88;;;29.08;;
12896;SDS011;6516;35.028;32.372;2022-12-19T01:01:26;52.22;;;26.50;;
12896;SDS011;6516;35.028;32.372;2022-12-19T01:03:57;53.37;;;26.97;;
12896;SDS011;6516;35.028;32.372;2022-12-19T01:06:26;56.22;;;27.10;;
12896;SDS011;6516;35.028;32.372;2022-12-19T01:08:54;55.35;;;27.02;;
12896;SDS011;6516;35.028;32.372;2022-12-19T01:11:22;63.35;;;30.17;;
12896;SDS011;6516;35.028;32.372;2022-12-19T01:14:05;59.88;;;27.30;;
12896;SDS011;6516;35.028;32.372;2022-12-19T01:16:33;55.30;;;26.67;;
12896;SDS011;6516;35.028;32.372;2022-12-19T01:19:01;59.42;;;29.42;;
12896;SDS011;6516;35.028;32.372;2022-12-19T01:21:28;61.70;;;30.23;;
12896;SDS011;6516;35.028;32.372;2022-12-19T01:23:56;62.90;;;29.25;;
12896;SDS011;6516;35.028;32.372;2022-12-19T01:26:24;54.72;;;28.40;;
12896;SDS011;6516;35.028;32.372;2022-12-19T01:28:52;53.63;;;25.97;;
12896;SDS011;6516;35.028;32.372;2022-12-19T01:31:21;59.53;;;29.85;;
12896;SDS011;6516;35.028;32.372;2022-12-19T01:33:49;67.22;;;30.50;;
12896;SDS011;6516;35.028;32.372;2022-12-19T01:36:17;64.88;;;29.58;;
12896;SDS011;6516;35.028;32.372;2022-12-19T01:38:44;61.63;;;29.70;;
12896;SDS011;6516;35.028;32.372;2022-12-19T01:41:12;65.67;;;29.43;;
12896;SDS011;6516;35.028;32.372;2022-12-19T01:43:53;66.03;;;29.65;;
12896;SDS011;6516;35.028;32.372;2022-12-19T01:46:26;62.97;;;30.30;;
12896;SDS011;6516;35.028;32.372;2022-12-19T01:48:59;67.95;;;29.80;;
12896;SDS011;6516;35.028;32.372;2022-12-19T01:51:29;60.88;;;28.77;;
12896;SDS011;6516;35.028;32.372;2022-12-19T01:54:05;55.73;;;27.63;;
12896;SDS011;6516;35.028;32.372;2022-12-19T01:56:38;63.40;;;28.88;;
12896;SDS011;6516;35.028;32.372;2022-12-19T01:59:10;63.72;;;29.65;;
12896;SDS011;6516;35.028;32.372;2022-12-19T02:01:45;60.15;;;28.70;;
12896;SDS011;6516;35.028;32.372;2022-12-19T02:04:14;58.13;;;27.85;;
12896;SDS011;6516;35.028;32.372;2022-12-19T02:06:43;60.73;;;27.07;;
12896;SDS011;6516;35.028;32.372;2022-12-19T02:09:10;56.13;;;28.00;;
12896;SDS011;6516;35.028;32.372;2022-12-19T02:11:38;54.15;;;27.52;;
12896;SDS011;6516;35.028;32.372;2022-12-19T02:14:06;58.30;;;27.98;;
12896;SDS011;6516;35.028;32.372;2022-12-19T02:16:37;57.42;;;27.70;;
12896;SDS011;6516;35.028;32.372;2022-12-19T02:19:20;54.30;;;27.93;;
12896;SDS011;6516;35.028;32.372;2022-12-19T02:22:16;51.42;;;26.83;;
12896;SDS011;6516;35.028;32.372;2022-12-19T02:24:59;53.22;;;26.23;;
12896;SDS011;6516;35.028;32.372;2022-12-19T02:27:58;50.22;;;24.48;;
12896;SDS011;6516;35.028;32.372;2022-12-19T02:31:05;51.25;;;25.25;;
12896;SDS011;6516;35.028;32.372;2022-12-19T02:33:39;44.97;;;22.60;;
12896;SDS011;6516;35.028;32.372;2022-12-19T02:36:13;45.25;;;23.02;;
12896;SDS011;6516;35.028;32.372;2022-12-19T02:38:46;43.97;;;23.30;;
12896;SDS011;6516;35.028;32.372;2022-12-19T02:41:20;43.58;;;22.45;;
12896;SDS011;6516;35.028;32.372;2022-12-19T02:43:53;42.85;;;22.63;;
12896;SDS011;6516;35.028;32.372;2022-12-19T02:46:24;43.63;;;21.93;;
12896;SDS011;6516;35.028;32.372;2022-12-19T02:48:54;41.58;;;21.55;;
12896;SDS011;6516;35.028;32.372;2022-12-19T02:51:23;45.22;;;23.30;;
12896;SDS011;6516;35.028;32.372;2022-12-19T02:53:50;43.42;;;22.77;;
12896;SDS011;6516;35.028;32.372;2022-12-19T02:56:25;48.30;;;24.33;;
12896;SDS011;6516;35.028;32.372;2022-12-19T03:02:15;39.50;;;21.30;;
12896;SDS011;6516;35.028;32.372;2022-12-19T03:04:55;39.60;;;22.73;;
12896;SDS011;6516;35.028;32.372;2022-12-19T03:07:32;38.28;;;20.75;;
12896;SDS011;6516;35.028;32.372;2022-12-19T03:10:08;39.72;;;21.48;;
12896;SDS011;6516;35.028;32.372;2022-12-19T03:12:44;37.90;;;20.20;;
12896;SDS011;6516;35.028;32.372;2022-12-19T03:15:20;33.95;;;19.58;;
12896;SDS011;6516;35.028;32.372;2022-12-19T03:17:50;34.92;;;19.17;;
12896;SDS011;6516;35.028;32.372;2022-12-19T03:20:22;32.85;;;19.40;;
12896;SDS011;6516;35.028;32.372;2022-12-19T03:23:08;36.53;;;19.70;;
12896;SDS011;6516;35.028;32.372;2022-12-19T03:25:36;32.90;;;19.43;;
12896;SDS011;6516;35.028;32.372;2022-12-19T03:28:08;30.33;;;17.80;;
12896;SDS011;6516;35.028;32.372;2022-12-19T03:30:39;33.28;;;18.52;;
12896;SDS011;6516;35.028;32.372;2022-12-19T03:33:10;27.65;;;16.58;;
12896;SDS011;6516;35.028;32.372;2022-12-19T03:35:42;28.90;;;17.17;;
12896;SDS011;6516;35.028;32.372;2022-12-19T03:38:11;30.70;;;16.60;;
12896;SDS011;6516;35.028;32.372;2022-12-19T03:40:41;28.17;;;16.63;;
12896;SDS011;6516;35.028;32.372;2022-12-19T03:43:11;27.08;;;16.65;;
12896;SDS011;6516;35.028;32.372;2022-12-19T03:45:43;28.70;;;15.63;;
12896;SDS011;6516;35.028;32.372;2022-12-19T03:48:22;28.00;;;16.38;;
12896;SDS011;6516;35.028;32.372;2022-12-19T03:50:57;26.70;;;16.23;;
12896;SDS011;6516;35.028;32.372;2022-12-19T03:53:37;29.13;;;16.00;;
12896;SDS011;6516;35.028;32.372;2022-12-19T03:56:18;24.73;;;14.77;;
12896;SDS011;6516;35.028;32.372;2022-12-19T03:58:56;24.05;;;13.85;;
12896;SDS011;6516;35.028;32.372;2022-12-19T04:01:28;25.75;;;15.95;;
12896;SDS011;6516;35.028;32.372;2022-12-19T04:04:02;25.73;;;15.13;;
12896;SDS011;6516;35.028;32.372;2022-12-19T04:06:32;25.58;;;15.00;;
12896;SDS011;6516;35.028;32.372;2022-12-19T04:09:01;24.90;;;14.68;;
12896;SDS011;6516;35.028;32.372;2022-12-19T04:11:31;26.70;;;15.20;;
12896;SDS011;6516;35.028;32.372;2022-12-19T04:14:05;24.77;;;14.65;;
12896;SDS011;6516;35.028;32.372;2022-12-19T04:16:38;27.87;;;14.80;;
12896;SDS011;6516;35.028;32.372;2022-12-19T04:19:14;25.63;;;14.82;;
12896;SDS011;6516;35.028;32.372;2022-12-19T04:21:49;23.27;;;13.43;;
12896;SDS011;6516;35.028;32.372;2022-12-19T04:24:23;24.10;;;14.85;;
12896;SDS011;6516;35.028;32.372;2022-12-19T04:26:56;23.23;;;14.15;;
12896;SDS011;6516;35.028;32.372;2022-12-19T04:29:26;24.47;;;14.20;;
12896;SDS011;6516;35.028;32.372;2022-12-19T04:31:57;23.15;;;13.82;;
12896;SDS011;6516;35.028;32.372;2022-12-19T04:34:27;23.42;;;14.15;;
12896;SDS011;6516;35.028;32.372;2022-12-19T04:36:55;23.45;;;14.85;;
12896;SDS011;6516;35.028;32.372;2022-12-19T04:39:22;24.25;;;14.20;;
12896;SDS011;6516;35.028;32.372;2022-12-19T04:41:50;23.23;;;13.93;;
12896;SDS011;6516;35.028;32.372;2022-12-19T04:44:18;23.45;;;14.15;;
12896;SDS011;6516;35.028;32.372;2022-12-19T04:46:45;25.23;;;14.77;;
12896;SDS011;6516;35.028;32.372;2022-12-19T04:49:13;22.52;;;13.50;;
12896;SDS011;6516;35.028;32.372;2022-12-19T04:51:42;23.33;;;13.93;;
12896;SDS011;6516;35.028;32.372;2022-12-19T04:54:10;22.93;;;13.73;;
12896;SDS011;6516;35.028;32.372;2022-12-19T04:56:38;23.15;;;13.85;;
12896;SDS011;6516;35.028;32.372;2022-12-19T04:59:06;24.08;;;14.25;;
12896;SDS011;6516;35.028;32.372;2022-12-19T05:01:33;22.38;;;13.73;;
12896;SDS011;6516;35.028;32.372;2022-12-19T05:04:01;26.13;;;14.98;;
12896;SDS011;6516;35.028;32.372;2022-12-19T05:06:29;25.10;;;14.37;;
12896;SDS011;6516;35.028;32.372;2022-12-19T05:09:03;24.77;;;15.18;;
12896;SDS011;6516;35.028;32.372;2022-12-19T05:11:31;25.45;;;15.20;;
12896;SDS011;6516;35.028;32.372;2022-12-19T05:13:58;27.70;;;15.25;;
12896;SDS011;6516;35.028;32.372;2022-12-19T05:16:26;28.17;;;16.05;;
12896;SDS011;6516;35.028;32.372;2022-12-19T05:18:54;27.60;;;15.67;;
12896;SDS011;6516;35.028;32.372;2022-12-19T05:21:22;27.17;;;14.25;;
12896;SDS011;6516;35.028;32.372;2022-12-19T05:23:50;25.90;;;14.80;;
12896;SDS011;6516;35.028;32.372;2022-12-19T05:26:19;26.55;;;15.07;;
12896;SDS011;6516;35.028;32.372;2022-12-19T05:28:47;26.40;;;15.10;;
12896;SDS011;6516;35.028;32.372;2022-12-19T05:31:16;26.83;;;15.53;;
12896;SDS011;6516;35.028;32.372;2022-12-19T05:33:46;25.33;;;15.32;;
12896;SDS011;6516;35.028;32.372;2022-12-19T05:36:15;24.10;;;14.57;;
12896;SDS011;6516;35.028;32.372;2022-12-19T05:38:44;26.08;;;14.80;;
12896;SDS011;6516;35.028;32.372;2022-12-19T05:41:12;28.38;;;15.05;;
12896;SDS011;6516;35.028;32.372;2022-12-19T05:43:43;26.83;;;15.13;;
12896;SDS011;6516;35.028;32.372;2022-12-19T05:46:14;26.63;;;14.75;;
12896;SDS011;6516;35.028;32.372;2022-12-19T05:48:42;23.42;;;14.38;;
12896;SDS011;6516;35.028;32.372;2022-12-19T05:51:10;23.85;;;14.48;;
12896;SDS011;6516;35.028;32.372;2022-12-19T05:53:38;25.80;;;14.63;;
12896;SDS011;6516;35.028;32.372;2022-12-19T05:56:07;25.23;;;14.40;;
12896;SDS011;6516;35.028;32.372;2022-12-19T05:58:37;23.25;;;13.68;;
12896;SDS011;6516;35.028;32.372;2022-12-19T06:01:08;22.00;;;13.70;;
12896;SDS011;6516;35.028;32.372;2022-12-19T06:03:38;23.42;;;13.95;;
12896;SDS011;6516;35.028;32.372;2022-12-19T06:06:07;21.35;;;12.95;;
12896;SDS011;6516;35.028;32.372;2022-12-19T06:08:37;22.00;;;13.50;;
12896;SDS011;6516;35.028;32.372;2022-12-19T06:11:06;21.35;;;13.15;;
12896;SDS011;6516;35.028;32.372;2022-12-19T06:13:35;20.45;;;12.75;;
12896;SDS011;6516;35.028;32.372;2022-12-19T06:16:04;19.70;;;12.57;;
12896;SDS011;6516;35.028;32.372;2022-12-19T06:18:38;18.75;;;12.15;;
12896;SDS011;6516;35.028;32.372;2022-12-19T06:21:08;17.83;;;11.90;;
12896;SDS011;6516;35.028;32.372;2022-12-19T06:23:39;17.73;;;11.50;;
12896;SDS011;6516;35.028;32.372;2022-12-19T06:26:07;19.73;;;11.43;;
12896;SDS011;6516;35.028;32.372;2022-12-19T06:28:38;17.85;;;10.50;;
12896;SDS011;6516;35.028;32.372;2022-12-19T06:31:05;13.50;;;9.40;;
12896;SDS011;6516;35.028;32.372;2022-12-19T06:33:35;14.00;;;9.07;;
12896;SDS011;6516;35.028;32.372;2022-12-19T06:36:03;12.73;;;9.10;;
12896;SDS011;6516;35.028;32.372;2022-12-19T06:38:33;15.52;;;9.05;;
12896;SDS011;6516;35.028;32.372;2022-12-19T06:41:01;12.48;;;8.55;;
12896;SDS011;6516;35.028;32.372;2022-12-19T06:43:47;12.73;;;8.20;;
12896;SDS011;6516;35.028;32.372;2022-12-19T06:46:14;11.37;;;7.87;;
12896;SDS011;6516;35.028;32.372;2022-12-19T06:48:44;12.60;;;8.43;;
12896;SDS011;6516;35.028;32.372;2022-12-19T06:51:11;11.60;;;7.75;;
12896;SDS011;6516;35.028;32.372;2022-12-19T06:53:39;12.27;;;7.80;;
12896;SDS011;6516;35.028;32.372;2022-12-19T06:56:07;12.40;;;7.63;;
12896;SDS011;6516;35.028;32.372;2022-12-19T06:58:35;11.10;;;7.57;;
12896;SDS011;6516;35.028;32.372;2022-12-19T07:01:03;10.93;;;7.75;;
12896;SDS011;6516;35.028;32.372;2022-12-19T07:03:33;12.55;;;8.55;;
12896;SDS011;6516;35.028;32.372;2022-12-19T07:06:06;10.98;;;7.80;;
12896;SDS011;6516;35.028;32.372;2022-12-19T07:08:34;10.95;;;7.57;;
12896;SDS011;6516;35.028;32.372;2022-12-19T07:11:02;10.07;;;7.70;;
12896;SDS011;6516;35.028;32.372;2022-12-19T07:13:30;10.90;;;7.82;;
12896;SDS011;6516;35.028;32.372;2022-12-19T07:15:58;11.15;;;7.70;;
12896;SDS011;6516;35.028;32.372;2022-12-19T07:18:29;11.73;;;7.47;;
12896;SDS011;6516;35.028;32.372;2022-12-19T07:21:00;10.75;;;7.30;;
12896;SDS011;6516;35.028;32.372;2022-12-19T07:23:30;10.20;;;7.03;;
12896;SDS011;6516;35.028;32.372;2022-12-19T07:25:59;10.85;;;7.75;;
12896;SDS011;6516;35.028;32.372;2022-12-19T07:28:27;10.27;;;7.30;;
12896;SDS011;6516;35.028;32.372;2022-12-19T07:30:55;10.57;;;7.05;;
12896;SDS011;6516;35.028;32.372;2022-12-19T07:33:22;10.27;;;7.38;;
12896;SDS011;6516;35.028;32.372;2022-12-19T07:35:50;11.53;;;7.30;;
12896;SDS011;6516;35.028;32.372;2022-12-19T07:38:18;9.63;;;6.63;;
12896;SDS011;6516;35.028;32.372;2022-12-19T07:40:47;10.32;;;7.28;;
12896;SDS011;6516;35.028;32.372;2022-12-19T07:43:15;12.63;;;7.85;;
12896;SDS011;6516;35.028;32.372;2022-12-19T07:45:43;12.05;;;7.53;;
12896;SDS011;6516;35.028;32.372;2022-12-19T07:48:11;8.90;;;6.30;;
12896;SDS011;6516;35.028;32.372;2022-12-19T07:50:38;10.48;;;7.10;;
12896;SDS011;6516;35.028;32.372;2022-12-19T07:53:07;10.20;;;7.38;;
12896;SDS011;6516;35.028;32.372;2022-12-19T07:55:34;13.10;;;7.88;;
12896;SDS011;6516;35.028;32.372;2022-12-19T07:58:04;11.35;;;7.88;;
12896;SDS011;6516;35.028;32.372;2022-12-19T08:00:33;11.10;;;8.07;;
12896;SDS011;6516;35.028;32.372;2022-12-19T08:03:01;10.60;;;7.68;;
12896;SDS011;6516;35.028;32.372;2022-12-19T08:05:30;10.20;;;7.47;;
12896;SDS011;6516;35.028;32.372;2022-12-19T08:07:58;10.52;;;7.45;;
12896;SDS011;6516;35.028;32.372;2022-12-19T08:10:26;10.85;;;7.80;;
12896;SDS011;6516;35.028;32.372;2022-12-19T08:12:55;10.93;;;7.73;;
12896;SDS011;6516;35.028;32.372;2022-12-19T08:15:24;10.70;;;7.85;;
12896;SDS011;6516;35.028;32.372;2022-12-19T08:17:52;11.95;;;8.35;;
12896;SDS011;6516;35.028;32.372;2022-12-19T08:20:20;11.60;;;8.32;;
12896;SDS011;6516;35.028;32.372;2022-12-19T08:22:48;11.32;;;7.85;;
12896;SDS011;6516;35.028;32.372;2022-12-19T08:25:15;11.87;;;8.00;;
12896;SDS011;6516;35.028;32.372;2022-12-19T08:27:43;11.45;;;7.75;;
12896;SDS011;6516;35.028;32.372;2022-12-19T08:30:11;12.45;;;8.13;;
12896;SDS011;6516;35.028;32.372;2022-12-19T08:32:41;9.60;;;7.50;;
12896;SDS011;6516;35.028;32.372;2022-12-19T08:35:10;10.52;;;7.55;;
12896;SDS011;6516;35.028;32.372;2022-12-19T08:37:37;9.60;;;7.33;;
12896;SDS011;6516;35.028;32.372;2022-12-19T08:40:06;10.25;;;7.30;;
12896;SDS011;6516;35.028;32.372;2022-12-19T08:42:35;10.10;;;7.28;;
12896;SDS011;6516;35.028;32.372;2022-12-19T08:45:03;9.65;;;6.60;;
12896;SDS011;6516;35.028;32.372;2022-12-19T08:47:32;9.48;;;6.75;;
12896;SDS011;6516;35.028;32.372;2022-12-19T08:50:01;10.03;;;7.30;;
12896;SDS011;6516;35.028;32.372;2022-12-19T08:52:31;10.43;;;7.57;;
12896;SDS011;6516;35.028;32.372;2022-12-19T08:55:00;11.30;;;8.27;;
12896;SDS011;6516;35.028;32.372;2022-12-19T08:57:28;11.70;;;8.20;;
12896;SDS011;6516;35.028;32.372;2022-12-19T08:59:56;11.05;;;8.23;;
12896;SDS011;6516;35.028;32.372;2022-12-19T09:02:24;11.63;;;8.70;;
12896;SDS011;6516;35.028;32.372;2022-12-19T09:04:51;13.45;;;8.90;;
12896;SDS011;6516;35.028;32.372;2022-12-19T09:07:21;11.88;;;9.00;;
12896;SDS011;6516;35.028;32.372;2022-12-19T09:09:50;11.90;;;9.10;;
12896;SDS011;6516;35.028;32.372;2022-12-19T09:12:18;12.40;;;9.02;;
12896;SDS011;6516;35.028;32.372;2022-12-19T09:14:46;11.90;;;9.07;;
12896;SDS011;6516;35.028;32.372;2022-12-19T09:17:14;11.63;;;8.68;;
12896;SDS011;6516;35.028;32.372;2022-12-19T09:19:41;12.00;;;9.57;;
12896;SDS011;6516;35.028;32.372;2022-12-19T09:22:09;10.88;;;8.52;;
12896;SDS011;6516;35.028;32.372;2022-12-19T09:24:38;13.50;;;9.32;;
12896;SDS011;6516;35.028;32.372;2022-12-19T09:27:06;11.27;;;8.60;;
12896;SDS011;6516;35.028;32.372;2022-12-19T09:29:34;11.70;;;8.57;;
12896;SDS011;6516;35.028;32.372;2022-12-19T09:32:01;11.25;;;8.27;;
12896;SDS011;6516;35.028;32.372;2022-12-19T09:34:29;11.15;;;8.00;;
12896;SDS011;6516;35.028;32.372;2022-12-19T09:36:57;11.90;;;7.82;;
12896;SDS011;6516;35.028;32.372;2022-12-19T09:39:24;10.20;;;8.17;;
12896;SDS011;6516;35.028;32.372;2022-12-19T09:42:06;14.10;;;10.00;;
12896;SDS011;6516;35.028;32.372;2022-12-19T09:45:06;15.27;;;11.75;;
12896;SDS011;6516;35.028;32.372;2022-12-19T09:47:54;14.77;;;12.10;;
12896;SDS011;6516;35.028;32.372;2022-12-19T09:50:32;13.88;;;10.88;;
12896;SDS011;6516;35.028;32.372;2022-12-19T09:53:14;12.63;;;8.97;;
12896;SDS011;6516;35.028;32.372;2022-12-19T09:55:49;12.38;;;8.68;;
12896;SDS011;6516;35.028;32.372;2022-12-19T09:58:25;11.77;;;8.05;;
12896;SDS011;6516;35.028;32.372;2022-12-19T10:01:01;11.85;;;8.65;;
12896;SDS011;6516;35.028;32.372;2022-12-19T10:03:38;10.85;;;8.25;;
12896;SDS011;6516;35.028;32.372;2022-12-19T10:06:12;12.00;;;8.17;;
12896;SDS011;6516;35.028;32.372;2022-12-19T10:08:44;10.00;;;7.95;;
12896;SDS011;6516;35.028;32.372;2022-12-19T10:11:18;10.73;;;8.25;;
12896;SDS011;6516;35.028;32.372;2022-12-19T10:14:12;13.60;;;9.57;;
12896;SDS011;6516;35.028;32.372;2022-12-19T10:17:00;11.82;;;8.50;;
12896;SDS011;6516;35.028;32.372;2022-12-19T10:19:43;13.33;;;9.10;;
12896;SDS011;6516;35.028;32.372;2022-12-19T10:22:31;12.20;;;7.90;;
12896;SDS011;6516;35.028;32.372;2022-12-19T10:25:12;10.15;;;7.28;;
12896;SDS011;6516;35.028;32.372;2022-12-19T10:28:05;10.38;;;7.00;;
12896;SDS011;6516;35.028;32.372;2022-12-19T10:31:03;12.05;;;7.72;;
12896;SDS011;6516;35.028;32.372;2022-12-19T10:33:41;11.13;;;7.97;;
12896;SDS011;6516;35.028;32.372;2022-12-19T10:36:13;10.88;;;7.53;;
12896;SDS011;6516;35.028;32.372;2022-12-19T10:38:42;11.60;;;7.60;;
12896;SDS011;6516;35.028;32.372;2022-12-19T10:41:17;10.05;;;7.60;;
12896;SDS011;6516;35.028;32.372;2022-12-19T10:43:50;11.05;;;7.65;;
12896;SDS011;6516;35.028;32.372;2022-12-19T10:46:38;9.17;;;7.03;;
12896;SDS011;6516;35.028;32.372;2022-12-19T10:49:11;9.57;;;6.97;;
12896;SDS011;6516;35.028;32.372;2022-12-19T10:51:41;9.73;;;7.32;;
12896;SDS011;6516;35.028;32.372;2022-12-19T10:54:20;10.85;;;8.23;;
12896;SDS011;6516;35.028;32.372;2022-12-19T10:56:49;10.73;;;8.38;;
12896;SDS011;6516;35.028;32.372;2022-12-19T10:59:17;11.47;;;8.00;;
12896;SDS011;6516;35.028;32.372;2022-12-19T11:01:48;12.52;;;8.30;;
12896;SDS011;6516;35.028;32.372;2022-12-19T11:04:21;11.50;;;8.40;;
12896;SDS011;6516;35.028;32.372;2022-12-19T11:07:04;11.25;;;7.75;;
12896;SDS011;6516;35.028;32.372;2022-12-19T11:09:43;11.65;;;8.02;;
12896;SDS011;6516;35.028;32.372;2022-12-19T11:12:12;10.40;;;8.00;;
12896;SDS011;6516;35.028;32.372;2022-12-19T11:14:43;10.70;;;8.27;;
12896;SDS011;6516;35.028;32.372;2022-12-19T11:17:26;10.93;;;8.40;;
12896;SDS011;6516;35.028;32.372;2022-12-19T11:20:13;11.23;;;7.95;;
12896;SDS011;6516;35.028;32.372;2022-12-19T11:22:47;10.73;;;8.10;;
12896;SDS011;6516;35.028;32.372;2022-12-19T11:25:21;12.17;;;8.00;;
12896;SDS011;6516;35.028;32.372;2022-12-19T11:28:03;11.00;;;8.38;;
12896;SDS011;6516;35.028;32.372;2022-12-19T11:30:39;10.65;;;7.82;;
12896;SDS011;6516;35.028;32.372;2022-12-19T11:33:11;11.65;;;8.60;;
12896;SDS011;6516;35.028;32.372;2022-12-19T11:35:45;11.98;;;8.35;;
12896;SDS011;6516;35.028;32.372;2022-12-19T11:38:16;11.60;;;8.73;;
12896;SDS011;6516;35.028;32.372;2022-12-19T11:41:01;13.02;;;8.48;;
12896;SDS011;6516;35.028;32.372;2022-12-19T11:43:39;12.82;;;9.45;;
12896;SDS011;6516;35.028;32.372;2022-12-19T11:46:25;13.82;;;9.75;;
12896;SDS011;6516;35.028;32.372;2022-12-19T11:49:04;13.35;;;9.43;;
12896;SDS011;6516;35.028;32.372;2022-12-19T11:51:46;11.70;;;8.47;;
12896;SDS011;6516;35.028;32.372;2022-12-19T11:54:19;14.70;;;9.30;;
12896;SDS011;6516;35.028;32.372;2022-12-19T11:56:52;12.63;;;9.32;;
12896;SDS011;6516;35.028;32.372;2022-12-19T11:59:20;13.45;;;10.27;;
12896;SDS011;6516;35.028;32.372;2022-12-19T12:02:06;14.90;;;10.45;;
12896;SDS011;6516;35.028;32.372;2022-12-19T12:05:21;13.53;;;10.43;;
12896;SDS011;6516;35.028;32.372;2022-12-19T12:11:16;14.20;;;10.85;;
12896;SDS011;6516;35.028;32.372;2022-12-19T12:13:58;14.35;;;10.43;;
12896;SDS011;6516;35.028;32.372;2022-12-19T12:16:43;13.13;;;9.98;;
12896;SDS011;6516;35.028;32.372;2022-12-19T12:19:31;13.00;;;9.93;;
12896;SDS011;6516;35.028;32.372;2022-12-19T12:25:42;12.68;;;10.02;;
12896;SDS011;6516;35.028;32.372;2022-12-19T12:28:41;13.85;;;10.50;;
12896;SDS011;6516;35.028;32.372;2022-12-19T12:31:26;13.60;;;10.48;;
12896;SDS011;6516;35.028;32.372;2022-12-19T12:34:09;12.90;;;10.27;;
12896;SDS011;6516;35.028;32.372;2022-12-19T12:37:02;14.48;;;10.65;;
12896;SDS011;6516;35.028;32.372;2022-12-19T12:39:48;15.07;;;10.65;;
12896;SDS011;6516;35.028;32.372;2022-12-19T12:42:40;14.15;;;10.43;;
12896;SDS011;6516;35.028;32.372;2022-12-19T12:45:18;14.27;;;10.80;;
12896;SDS011;6516;35.028;32.372;2022-12-19T12:47:50;14.47;;;10.23;;
12896;SDS011;6516;35.028;32.372;2022-12-19T12:50:20;15.32;;;10.98;;
12896;SDS011;6516;35.028;32.372;2022-12-19T12:52:51;14.75;;;10.48;;
12896;SDS011;6516;35.028;32.372;2022-12-19T12:55:25;15.07;;;10.65;;
12896;SDS011;6516;35.028;32.372;2022-12-19T12:57:55;12.98;;;10.02;;
12896;SDS011;6516;35.028;32.372;2022-12-19T13:00:25;14.33;;;10.67;;
12896;SDS011;6516;35.028;32.372;2022-12-19T13:02:55;13.25;;;10.55;;
12896;SDS011;6516;35.028;32.372;2022-12-19T13:05:36;14.27;;;10.45;;
12896;SDS011;6516;35.028;32.372;2022-12-19T13:11:33;14.98;;;10.20;;
12896;SDS011;6516;35.028;32.372;2022-12-19T13:14:41;14.73;;;10.33;;
12896;SDS011;6516;35.028;32.372;2022-12-19T13:17:16;15.93;;;11.15;;
12896;SDS011;6516;35.028;32.372;2022-12-19T13:19:52;15.45;;;10.80;;
12896;SDS011;6516;35.028;32.372;2022-12-19T13:28:33;14.33;;;10.47;;
12896;SDS011;6516;35.028;32.372;2022-12-19T13:31:17;15.20;;;10.65;;
12896;SDS011;6516;35.028;32.372;2022-12-19T13:36:43;14.82;;;10.60;;
12896;SDS011;6516;35.028;32.372;2022-12-19T13:39:29;13.88;;;10.57;;
12896;SDS011;6516;35.028;32.372;2022-12-19T13:42:00;14.47;;;10.87;;
12896;SDS011;6516;35.028;32.372;2022-12-19T13:44:56;16.38;;;11.57;;
12896;SDS011;6516;35.028;32.372;2022-12-19T13:47:29;14.38;;;11.30;;
12896;SDS011;6516;35.028;32.372;2022-12-19T13:50:03;16.02;;;12.27;;
12896;SDS011;6516;35.028;32.372;2022-12-19T13:52:40;16.25;;;11.40;;
12896;SDS011;6516;35.028;32.372;2022-12-19T13:55:09;17.17;;;12.13;;
12896;SDS011;6516;35.028;32.372;2022-12-19T13:57:40;15.50;;;12.27;;
12896;SDS011;6516;35.028;32.372;2022-12-19T14:00:15;18.35;;;13.27;;
12896;SDS011;6516;35.028;32.372;2022-12-19T14:02:46;16.27;;;12.40;;
12896;SDS011;6516;35.028;32.372;2022-12-19T14:05:18;20.48;;;13.45;;
12896;SDS011;6516;35.028;32.372;2022-12-19T14:07:50;19.13;;;13.87;;
12896;SDS011;6516;35.028;32.372;2022-12-19T14:10:20;17.75;;;12.77;;
12896;SDS011;6516;35.028;32.372;2022-12-19T14:12:54;18.05;;;12.85;;
12896;SDS011;6516;35.028;32.372;2022-12-19T14:15:44;20.40;;;12.10;;
12896;SDS011;6516;35.028;32.372;2022-12-19T14:18:18;17.65;;;11.88;;
12896;SDS011;6516;35.028;32.372;2022-12-19T14:20:48;19.27;;;13.63;;
12896;SDS011;6516;35.028;32.372;2022-12-19T14:23:17;19.85;;;13.90;;
12896;SDS011;6516;35.028;32.372;2022-12-19T14:25:46;17.08;;;12.93;;
12896;SDS011;6516;35.028;32.372;2022-12-19T14:28:18;18.23;;;13.48;;
12896;SDS011;6516;35.028;32.372;2022-12-19T14:30:52;19.30;;;14.40;;
12896;SDS011;6516;35.028;32.372;2022-12-19T14:33:26;21.07;;;16.30;;
12896;SDS011;6516;35.028;32.372;2022-12-19T14:36:00;60.97;;;46.20;;
12896;SDS011;6516;35.028;32.372;2022-12-19T14:38:29;41.65;;;32.83;;
12896;SDS011;6516;35.028;32.372;2022-12-19T14:40:59;32.35;;;24.75;;
12896;SDS011;6516;35.028;32.372;2022-12-19T14:43:28;32.92;;;25.65;;
12896;SDS011;6516;35.028;32.372;2022-12-19T14:46:11;29.30;;;22.87;;
12896;SDS011;6516;35.028;32.372;2022-12-19T14:48:51;45.10;;;35.03;;
12896;SDS011;6516;35.028;32.372;2022-12-19T14:51:25;33.97;;;25.63;;
12896;SDS011;6516;35.028;32.372;2022-12-19T14:54:02;29.95;;;19.52;;
12896;SDS011;6516;35.028;32.372;2022-12-19T14:56:42;27.83;;;19.30;;
12896;SDS011;6516;35.028;32.372;2022-12-19T14:59:29;53.77;;;41.40;;
12896;SDS011;6516;35.028;32.372;2022-12-19T15:02:03;43.45;;;30.38;;
12896;SDS011;6516;35.028;32.372;2022-12-19T15:04:42;41.95;;;30.88;;
12896;SDS011;6516;35.028;32.372;2022-12-19T15:07:14;35.50;;;26.85;;
12896;SDS011;6516;35.028;32.372;2022-12-19T15:09:49;44.63;;;35.00;;
12896;SDS011;6516;35.028;32.372;2022-12-19T15:12:24;34.07;;;24.33;;
12896;SDS011;6516;35.028;32.372;2022-12-19T15:15:16;31.83;;;22.85;;
12896;SDS011;6516;35.028;32.372;2022-12-19T15:17:49;33.38;;;23.60;;
12896;SDS011;6516;35.028;32.372;2022-12-19T15:20:18;53.10;;;39.72;;
12896;SDS011;6516;35.028;32.372;2022-12-19T15:22:46;50.58;;;39.42;;